createdAt,value
2023-03-23T00:01:02.680Z,0.00
2023-03-23T00:02:04.104Z,0.00
2023-03-23T00:03:03.705Z,0.00
2023-03-23T00:04:03.495Z,0.00
2023-03-23T00:11:38.636Z,0.00
2023-03-23T00:12:39.802Z,0.00
2023-03-23T00:13:39.640Z,0.00
2023-03-23T00:14:39.617Z,0.00
2023-03-23T00:15:39.710Z,0.00
2023-03-23T00:16:39.546Z,0.00
2023-03-23T00:17:39.535Z,0.00
2023-03-23T00:18:39.537Z,0.00
2023-03-23T00:19:39.520Z,0.00
2023-03-23T00:20:39.634Z,0.00
2023-03-23T00:21:39.445Z,0.00
2023-03-23T00:22:39.445Z,0.00
2023-03-23T00:23:39.508Z,0.00
2023-03-23T00:24:39.484Z,0.00
2023-03-23T00:25:39.656Z,0.00
2023-03-23T00:26:48.126Z,0.00
2023-03-23T00:27:39.534Z,0.00
2023-03-23T00:28:39.358Z,0.00
2023-03-23T00:29:39.391Z,0.00
2023-03-23T00:30:39.376Z,0.00
2023-03-23T00:31:39.346Z,0.00
2023-03-23T00:32:39.429Z,0.00
2023-03-23T00:33:39.331Z,0.00
2023-03-23T00:34:39.293Z,0.00
2023-03-23T00:35:39.644Z,0.00
2023-03-23T00:36:39.391Z,0.00
2023-03-23T01:09:49.798Z,0.00
2023-03-23T01:10:50.786Z,0.00
2023-03-23T01:11:50.735Z,0.00
2023-03-23T01:12:50.702Z,0.00
2023-03-23T01:13:50.590Z,0.00
2023-03-23T01:14:50.573Z,0.00
2023-03-23T01:15:50.572Z,0.00
2023-03-23T01:16:50.578Z,0.00
2023-03-23T01:17:50.518Z,0.00
2023-03-23T01:18:50.546Z,0.00
2023-03-23T01:19:50.505Z,0.00
2023-03-23T01:20:50.507Z,0.00
2023-03-23T01:21:50.492Z,0.00
2023-03-23T01:22:50.555Z,0.00
2023-03-23T01:23:50.466Z,0.00
2023-03-23T01:24:50.585Z,0.00
2023-03-23T01:25:50.454Z,0.00
2023-03-23T01:26:50.437Z,0.00
2023-03-23T01:27:50.446Z,0.00
2023-03-23T01:28:50.422Z,0.00
2023-03-23T01:29:50.413Z,0.00
2023-03-23T01:30:50.426Z,0.00
2023-03-23T01:31:50.402Z,0.00
2023-03-23T01:32:50.399Z,0.00
2023-03-23T01:33:50.383Z,0.00
2023-03-23T01:34:50.382Z,0.00
2023-03-23T01:35:50.383Z,0.00
2023-03-23T01:36:50.348Z,0.00
2023-03-23T01:37:50.321Z,0.00
2023-03-23T01:38:50.341Z,0.00
2023-03-23T01:39:50.345Z,0.00
2023-03-23T01:40:50.306Z,0.00
2023-03-23T01:41:50.279Z,0.00
2023-03-23T01:42:50.281Z,0.00
2023-03-23T01:43:50.287Z,0.00
2023-03-23T01:44:50.312Z,0.00
2023-03-23T01:45:50.242Z,0.00
2023-03-23T01:46:50.243Z,0.00
2023-03-23T01:50:33.076Z,0.00
2023-03-23T01:51:41.828Z,0.00
2023-03-23T01:52:33.973Z,0.00
2023-03-23T01:53:33.972Z,0.00
2023-03-23T01:54:33.984Z,0.00
2023-03-23T01:55:33.924Z,0.00
2023-03-23T01:56:33.882Z,0.00
2023-03-23T01:57:33.909Z,0.00
2023-03-23T01:58:33.868Z,0.00
2023-03-23T01:59:33.847Z,0.00
2023-03-23T02:00:33.873Z,0.00
2023-03-23T02:01:33.832Z,0.00
2023-03-23T02:02:33.857Z,0.00
2023-03-23T02:03:33.805Z,0.00
2023-03-23T02:04:33.824Z,0.00
2023-03-23T02:05:33.794Z,0.00
2023-03-23T02:06:33.802Z,0.00
2023-03-23T02:07:33.770Z,0.00
2023-03-23T02:08:33.771Z,0.00
2023-03-23T02:09:33.790Z,0.00
2023-03-23T02:10:33.792Z,0.00
2023-03-23T02:11:33.726Z,0.00
2023-03-23T02:12:33.748Z,0.00
2023-03-23T02:13:33.724Z,1.00
2023-03-23T02:14:33.710Z,0.00
2023-03-23T02:15:33.690Z,0.00
2023-03-23T02:16:33.683Z,0.00
2023-03-23T02:17:33.698Z,0.00
2023-03-23T02:18:33.709Z,0.00
2023-03-23T02:19:33.737Z,0.00
2023-03-23T02:20:33.660Z,0.00
2023-03-23T02:21:33.638Z,0.00
2023-03-23T02:22:33.629Z,0.00
2023-03-23T02:23:33.598Z,0.00
2023-03-23T02:24:33.602Z,0.00
2023-03-23T02:25:33.598Z,0.00
2023-03-23T02:26:33.616Z,0.00
2023-03-23T02:27:33.546Z,0.00
2023-03-23T02:28:33.611Z,0.00
2023-03-23T02:29:33.575Z,0.00
2023-03-23T02:30:33.612Z,0.00
2023-03-23T02:31:33.540Z,0.00
2023-03-23T02:32:33.533Z,0.00
2023-03-23T02:37:01.896Z,0.00
2023-03-23T02:38:02.872Z,0.00
2023-03-23T02:39:02.832Z,0.00
2023-03-23T02:40:02.939Z,0.00
2023-03-23T02:41:02.674Z,0.00
2023-03-23T02:42:02.693Z,0.00
2023-03-23T02:43:02.655Z,0.00
2023-03-23T02:44:17.786Z,0.00
2023-03-23T02:45:02.715Z,0.00
2023-03-23T02:46:02.786Z,0.00
2023-03-23T02:47:02.776Z,0.00
2023-03-23T02:48:02.618Z,0.00
2023-03-23T02:49:02.624Z,0.00
2023-03-23T02:50:02.582Z,0.00
2023-03-23T02:51:02.579Z,0.00
2023-03-23T02:52:02.509Z,1.00
2023-03-23T02:53:02.585Z,0.00
2023-03-23T02:54:02.564Z,0.00
2023-03-23T02:55:02.510Z,0.00
2023-03-23T02:56:02.537Z,0.00
2023-03-23T02:57:02.500Z,0.00
2023-03-23T02:58:02.502Z,0.00
2023-03-23T02:59:02.490Z,0.00
2023-03-23T03:00:02.536Z,0.00
2023-03-23T03:01:02.461Z,0.00
2023-03-23T03:02:02.462Z,0.00
2023-03-23T03:03:02.430Z,0.00
2023-03-23T03:04:02.442Z,0.00
2023-03-23T03:05:02.475Z,0.00
2023-03-23T03:06:02.408Z,0.00
2023-03-23T03:07:02.420Z,0.00
2023-03-23T03:08:02.387Z,0.00
2023-03-23T03:09:02.398Z,0.00
2023-03-23T03:10:02.483Z,0.00
2023-03-23T03:11:02.352Z,0.00
2023-03-23T03:12:02.339Z,0.00
2023-03-23T03:13:02.341Z,0.00
2023-03-23T03:14:02.346Z,0.00
2023-03-23T03:15:02.341Z,0.00
2023-03-23T03:16:02.372Z,0.00
2023-03-23T03:17:02.337Z,0.00
2023-03-23T03:18:02.356Z,0.00
2023-03-23T03:19:02.299Z,0.00
2023-03-23T03:20:02.261Z,0.00
2023-03-23T03:21:02.260Z,0.00
2023-03-23T03:22:02.244Z,0.00
2023-03-23T03:23:02.241Z,0.00
2023-03-23T03:24:02.212Z,0.00
2023-03-23T03:25:17.916Z,0.00
2023-03-23T03:26:02.291Z,0.00
2023-03-23T03:27:02.277Z,0.00
2023-03-23T03:33:12.933Z,0.00
2023-03-23T03:34:14.125Z,0.00
2023-03-23T03:35:13.941Z,0.00
2023-03-23T03:36:13.986Z,0.00
2023-03-23T03:37:13.955Z,0.00
2023-03-23T03:38:13.910Z,0.00
2023-03-23T03:39:13.852Z,0.00
2023-03-23T03:40:13.867Z,0.00
2023-03-23T03:41:13.988Z,0.00
2023-03-23T03:42:13.846Z,0.00
2023-03-23T03:43:13.834Z,0.00
2023-03-23T03:44:13.817Z,0.00
2023-03-23T03:45:13.867Z,0.00
2023-03-23T03:46:13.802Z,0.00
2023-03-23T03:47:13.778Z,0.00
2023-03-23T03:48:13.794Z,0.00
2023-03-23T03:49:13.783Z,0.00
2023-03-23T03:50:13.995Z,0.00
2023-03-23T03:51:13.727Z,0.00
2023-03-23T03:59:25.876Z,0.00
2023-03-23T04:00:26.793Z,0.00
2023-03-23T04:01:26.744Z,0.00
2023-03-23T04:02:26.633Z,0.00
2023-03-23T04:06:08.195Z,0.00
2023-03-23T04:07:09.610Z,0.00
2023-03-23T04:08:09.657Z,0.00
2023-03-23T04:09:09.081Z,0.00
2023-03-23T04:10:08.913Z,0.00
2023-03-23T04:11:08.856Z,0.00
2023-03-23T04:12:08.862Z,0.00
2023-03-23T04:13:08.832Z,0.00
2023-03-23T04:14:08.859Z,0.00
2023-03-23T04:15:08.823Z,0.00
2023-03-23T04:16:11.103Z,0.00
2023-03-23T04:17:08.881Z,0.00
2023-03-23T04:18:08.816Z,0.00
2023-03-23T04:19:09.857Z,0.00
2023-03-23T04:20:08.759Z,0.00
2023-03-23T04:21:08.787Z,0.00
2023-03-23T04:22:08.755Z,0.00
2023-03-23T04:23:08.732Z,0.00
2023-03-23T04:24:08.710Z,0.00
2023-03-23T04:25:08.713Z,0.00
2023-03-23T04:26:08.717Z,0.00
2023-03-23T04:27:08.686Z,0.00
2023-03-23T04:28:08.700Z,0.00
2023-03-23T04:29:08.659Z,0.00
2023-03-23T04:30:08.658Z,0.00
2023-03-23T04:31:08.720Z,0.00
2023-03-23T04:32:08.663Z,0.00
2023-03-23T04:33:08.637Z,0.00
2023-03-23T04:34:08.698Z,0.00
2023-03-23T09:16:15.625Z,139.00
2023-03-23T09:17:16.416Z,61.00
2023-03-23T09:18:16.393Z,190.00
2023-03-23T09:20:56.339Z,416.00
2023-03-23T09:25:06.785Z,743.00
2023-03-23T09:25:58.393Z,767.00
2023-03-23T09:27:15.008Z,721.00
2023-03-23T09:27:58.286Z,668.00
2023-03-23T09:28:58.349Z,624.00
2023-03-23T09:31:58.089Z,1015.00
2023-03-23T09:32:59.020Z,1018.00
2023-03-23T09:33:59.535Z,977.00
2023-03-23T09:35:14.993Z,1029.00
2023-03-23T09:37:44.846Z,860.00
2023-03-23T09:42:07.956Z,901.00
2023-03-23T09:48:54.454Z,1464.00
2023-03-23T09:51:15.790Z,1514.00
2023-03-23T09:52:16.879Z,1566.00
2023-03-23T09:53:28.928Z,1523.00
2023-03-23T09:57:04.087Z,1112.00
2023-03-23T10:02:04.090Z,1033.00
2023-03-23T10:05:04.533Z,1237.00
2023-03-23T10:06:05.344Z,1201.00
2023-03-23T10:07:06.231Z,1219.00
2023-03-23T10:11:43.111Z,1317.00
2023-03-23T10:12:44.325Z,1305.00
2023-03-23T10:27:29.842Z,1010.00
2023-03-23T10:28:30.664Z,1063.00
2023-03-23T10:29:30.726Z,924.00
2023-03-23T10:30:40.812Z,782.00
2023-03-23T10:31:30.683Z,845.00
2023-03-23T10:32:30.814Z,1273.00
2023-03-23T10:33:30.626Z,1798.00
2023-03-23T10:37:13.662Z,1122.00
2023-03-23T10:38:14.616Z,1076.00
2023-03-23T10:39:14.594Z,1089.00
2023-03-23T10:40:14.521Z,1414.00
2023-03-23T10:41:26.468Z,1158.00
2023-03-23T10:42:14.364Z,1307.00
2023-03-23T10:43:14.468Z,1644.00
2023-03-23T10:44:14.468Z,1914.00
2023-03-23T10:45:14.352Z,1962.00
2023-03-23T10:48:16.180Z,1674.00
2023-03-23T10:49:17.165Z,1659.00
2023-03-23T10:50:17.035Z,1877.00
2023-03-23T10:51:16.914Z,1899.00
2023-03-23T10:52:17.238Z,1715.00
2023-03-23T11:09:01.605Z,1535.00
2023-03-23T11:18:17.201Z,1009.00
2023-03-23T11:19:25.731Z,734.00
2023-03-23T11:38:00.947Z,2072.00
2023-03-23T12:34:41.167Z,1509.00
2023-03-23T12:47:26.076Z,1906.00
2023-03-23T12:48:27.153Z,2164.00
2023-03-23T12:49:27.114Z,2473.00
2023-03-23T12:50:27.020Z,1795.00
2023-03-23T12:51:27.003Z,1242.00
2023-03-23T12:52:26.986Z,2344.00
2023-03-23T12:53:26.961Z,1473.00
2023-03-23T12:54:26.965Z,956.00
2023-03-23T12:58:00.402Z,1518.00
2023-03-23T12:59:01.388Z,521.00
2023-03-23T13:02:30.126Z,1562.00
2023-03-23T13:10:42.937Z,2052.00
2023-03-23T13:18:57.355Z,1782.00
2023-03-23T13:19:58.411Z,1777.00
2023-03-23T13:22:30.885Z,1654.00
2023-03-23T13:23:29.940Z,1632.00
2023-03-23T13:24:29.922Z,1743.00
2023-03-23T13:25:29.819Z,1237.00
2023-03-23T13:26:29.793Z,1441.00
2023-03-23T13:27:29.933Z,2040.00
2023-03-23T13:28:29.798Z,1685.00
2023-03-23T13:47:06.897Z,1839.00
2023-03-23T13:48:07.860Z,2199.00
2023-03-23T13:55:16.705Z,1580.00
2023-03-23T13:56:17.793Z,1791.00
2023-03-23T13:57:17.652Z,1555.00
2023-03-23T13:58:17.603Z,1300.00
2023-03-23T13:59:17.605Z,1403.00
2023-03-23T14:00:17.543Z,1668.00
2023-03-23T14:10:23.967Z,1740.00
2023-03-23T14:16:17.072Z,1835.00
2023-03-23T14:17:26.516Z,1793.00
2023-03-23T14:19:45.219Z,1504.00
2023-03-23T14:22:22.020Z,1090.00
2023-03-23T14:24:55.641Z,1233.00
2023-03-23T14:25:57.200Z,1218.00
2023-03-23T14:26:56.174Z,962.00
2023-03-23T14:27:56.285Z,990.00
2023-03-23T14:28:57.013Z,1474.00
2023-03-23T14:29:56.188Z,2516.00
2023-03-23T14:40:35.081Z,2030.00
2023-03-23T15:56:58.666Z,273.00
2023-03-23T16:14:54.654Z,389.00
2023-03-23T16:15:55.298Z,340.00
2023-03-23T16:16:55.355Z,433.00
2023-03-23T16:17:55.197Z,507.00
2023-03-23T16:18:55.191Z,547.00
2023-03-23T16:19:55.207Z,408.00
2023-03-23T16:20:55.181Z,346.00
2023-03-23T16:21:55.095Z,287.00
2023-03-23T16:22:55.213Z,281.00
2023-03-23T16:23:55.085Z,341.00
2023-03-23T16:24:55.276Z,544.00
2023-03-23T16:25:55.186Z,565.00
2023-03-23T16:26:55.898Z,718.00
2023-03-23T16:27:55.054Z,794.00
2023-03-23T16:51:33.013Z,556.00
2023-03-23T17:06:36.176Z,260.00
2023-03-23T18:42:04.343Z,0.00
2023-03-23T18:43:12.587Z,0.00
2023-03-23T18:50:32.318Z,1.00
2023-03-23T18:51:33.213Z,0.00
2023-03-23T18:52:32.974Z,0.00
2023-03-23T18:53:33.563Z,0.00
2023-03-23T18:54:32.924Z,0.00
2023-03-23T18:55:33.020Z,1.00
2023-03-23T18:56:32.875Z,0.00
2023-03-23T18:57:33.215Z,0.00
2023-03-23T19:01:55.626Z,0.00
2023-03-23T19:02:57.058Z,0.00
2023-03-23T19:03:56.694Z,0.00
2023-03-23T19:04:56.721Z,0.00
2023-03-23T19:05:56.687Z,0.00
2023-03-23T19:06:56.635Z,0.00
2023-03-23T19:07:56.621Z,0.00
2023-03-23T19:08:56.641Z,0.00
2023-03-23T19:09:56.570Z,0.00
2023-03-23T19:10:56.646Z,0.00
2023-03-23T19:11:56.548Z,0.00
2023-03-23T19:12:56.619Z,0.00
2023-03-23T19:14:02.490Z,0.00
2023-03-23T19:14:56.525Z,0.00
2023-03-23T19:15:56.518Z,0.00
2023-03-23T19:16:56.491Z,0.00
2023-03-23T19:17:56.819Z,0.00
2023-03-23T19:18:57.709Z,0.00
2023-03-23T19:19:58.069Z,0.00
2023-03-23T19:21:13.703Z,0.00
2023-03-23T19:21:56.539Z,0.00
2023-03-23T19:22:57.263Z,0.00
2023-03-23T19:23:56.490Z,0.00
2023-03-23T19:24:56.529Z,0.00
2023-03-23T19:25:56.731Z,0.00
2023-03-23T19:26:56.522Z,0.00
2023-03-23T19:29:23.088Z,0.00
2023-03-23T19:29:58.620Z,0.00
2023-03-23T19:30:56.438Z,0.00
2023-03-23T19:31:56.322Z,0.00
2023-03-23T19:32:56.354Z,0.00
2023-03-23T19:33:56.401Z,0.00
2023-03-23T19:34:56.373Z,0.00
2023-03-23T19:36:07.258Z,0.00
2023-03-23T19:37:04.109Z,0.00
2023-03-23T19:37:56.264Z,0.00
2023-03-23T19:38:56.264Z,0.00
2023-03-23T19:39:56.323Z,0.00
2023-03-23T19:40:56.899Z,0.00
2023-03-23T19:41:56.314Z,0.00
2023-03-23T19:42:56.520Z,0.00
2023-03-23T19:43:56.213Z,0.00
2023-03-23T19:44:56.277Z,0.00
2023-03-23T19:45:56.228Z,0.00
2023-03-23T19:46:56.494Z,0.00
2023-03-23T19:47:56.230Z,0.00
2023-03-23T19:48:56.397Z,0.00
2023-03-23T19:49:56.189Z,0.00
2023-03-23T19:50:56.129Z,0.00
2023-03-23T19:52:07.131Z,0.00
2023-03-23T19:52:58.404Z,0.00
2023-03-23T19:53:56.247Z,0.00
2023-03-23T19:54:56.120Z,0.00
2023-03-23T19:55:56.103Z,0.00
2023-03-23T19:56:56.153Z,0.00
2023-03-23T19:57:56.054Z,0.00
2023-03-23T19:58:56.264Z,0.00
2023-03-23T19:59:56.083Z,0.00
2023-03-23T20:00:56.030Z,0.00
2023-03-23T23:17:12.176Z,0.00
